Gil Vicente — CSKG — position and weather

sailwx.info

Track history (hours):
 
Tides and Currents Weather Stations Pressure Air Temp Water Temp Dewpoint Dewpoint Depression Visibility Wind Speed Wind Dir Waves Ship Positions

Gil Vicente

Last reported at 2017-Oct-27 14:00 UTC. Time now 2017-Nov-24 12:58 UTC.
Position N 39°21' W 009°22'.
Warning: this ship's position is 27 days out of date.

Length 49 m.

Type: Passenger vessel. MMSI: 263701390.

Date/timePositionNaut miles runAvg speedWind from/ knotsBaromVisibWave heightAir tempDewpointWater temp
2017-Oct-27 14:00N 39°21' W 009°22'1 1.7
2017-Oct-27 13:30N 39°20' W 009°22'611.4
2017-Oct-27 13:00N 39°15' W 009°24'815.3
2017-Oct-27 12:30N 39°08' W 009°27'815.2
2017-Oct-27 12:00N 39°00' W 009°29'815.6
2017-Oct-27 11:30N 38°52' W 009°30'612.1
2017-Oct-27 11:00N 38°46' W 009°31'510.6
2017-Oct-27 10:30N 38°42' W 009°29'611.4
2017-Oct-27 10:00N 38°41' W 009°22'612.4
2017-Oct-27 09:30N 38°41' W 009°14'5 9.2
2017-Oct-27 09:00N 38°42' W 009°08'1 2.1
2017-Oct-27 08:30N 38°41' W 009°08'3 6.4
2017-Oct-27 08:00N 38°39' W 009°05'0 0.0
2017-Oct-25 10:08N 38°39' W 009°05'0 0.0
2017-Oct-25 10:00N 38°39' W 009°05'0 0.0
2017-Oct-23 15:32N 38°39' W 009°05'0 0.0
2017-Oct-23 15:30N 38°39' W 009°05'0 0.0
2017-Oct-23 15:00N 38°39' W 009°05'0 0.0
2017-Oct-23 14:27N 38°39' W 009°05'  
2017-Oct-18 14:45N 38°39' W 009°05'0 0.0
2017-Oct-18 14:00N 38°39' W 009°05'0 0.0
2017-Oct-18 13:30N 38°39' W 009°05'0 0.0
2017-Oct-18 13:00N 38°39' W 009°05'0 0.0
2017-Oct-18 12:30N 38°39' W 009°05'0 0.0
2017-Oct-18 11:58N 38°39' W 009°05'0 0.0
2017-Oct-18 11:30N 38°39' W 009°05'0 0.0
2017-Oct-18 11:00N 38°39' W 009°05'0 0.0
2017-Oct-18 10:29N 38°39' W 009°05'0 0.0
2017-Oct-18 10:00N 38°39' W 009°05'0 0.0
2017-Oct-17 14:48N 38°39' W 009°05'0 0.0
2017-Oct-17 14:30N 38°39' W 009°05'  
Track history (hours):
 
Tides and Currents Weather Stations Pressure Air Temp Water Temp Dewpoint Dewpoint Depression Visibility Wind Speed Wind Dir Waves Ship Positions

Gil Vicente

Last reported at 2017-Oct-27 14:00 UTC. Time now 2017-Nov-24 12:58 UTC.
Position N 39°21' W 009°22'.
Warning: this ship's position is 27 days out of date.

Length 49 m.

Type: Passenger vessel. MMSI: 263701390.

Date/timePositionNaut miles runAvg speedWind from/ knotsBaromVisibWave heightAir tempDewpointWater temp
2017-Oct-27 14:00N 39°21' W 009°22'1 1.7
2017-Oct-27 13:30N 39°20' W 009°22'611.4
2017-Oct-27 13:00N 39°15' W 009°24'815.3
2017-Oct-27 12:30N 39°08' W 009°27'815.2
2017-Oct-27 12:00N 39°00' W 009°29'815.6
2017-Oct-27 11:30N 38°52' W 009°30'612.1
2017-Oct-27 11:00N 38°46' W 009°31'510.6
2017-Oct-27 10:30N 38°42' W 009°29'611.4
2017-Oct-27 10:00N 38°41' W 009°22'612.4
2017-Oct-27 09:30N 38°41' W 009°14'5 9.2
2017-Oct-27 09:00N 38°42' W 009°08'1 2.1
2017-Oct-27 08:30N 38°41' W 009°08'3 6.4
2017-Oct-27 08:00N 38°39' W 009°05'0 0.0
2017-Oct-25 10:08N 38°39' W 009°05'0 0.0
2017-Oct-25 10:00N 38°39' W 009°05'0 0.0
2017-Oct-23 15:32N 38°39' W 009°05'0 0.0
2017-Oct-23 15:30N 38°39' W 009°05'0 0.0
2017-Oct-23 15:00N 38°39' W 009°05'0 0.0
2017-Oct-23 14:27N 38°39' W 009°05'  
2017-Oct-18 14:45N 38°39' W 009°05'0 0.0
2017-Oct-18 14:00N 38°39' W 009°05'0 0.0
2017-Oct-18 13:30N 38°39' W 009°05'0 0.0
2017-Oct-18 13:00N 38°39' W 009°05'0 0.0
2017-Oct-18 12:30N 38°39' W 009°05'0 0.0
2017-Oct-18 11:58N 38°39' W 009°05'0 0.0
2017-Oct-18 11:30N 38°39' W 009°05'0 0.0
2017-Oct-18 11:00N 38°39' W 009°05'0 0.0
2017-Oct-18 10:29N 38°39' W 009°05'0 0.0
2017-Oct-18 10:00N 38°39' W 009°05'0 0.0
2017-Oct-17 14:48N 38°39' W 009°05'0 0.0
2017-Oct-17 14:30N 38°39' W 009°05'  

Dump ship's entire track history